createdAt,value
2023-05-08T00:02:00.898Z,47.48
2023-05-08T00:04:26.584Z,47.79
2023-05-08T00:06:52.274Z,47.64
2023-05-08T00:09:19.076Z,47.74
2023-05-08T00:11:44.800Z,47.47
2023-05-08T00:14:10.487Z,47.58
2023-05-08T00:16:36.527Z,47.62
2023-05-08T00:19:02.958Z,47.54
2023-05-08T00:21:28.859Z,47.62
2023-05-08T00:23:54.535Z,47.65
2023-05-08T00:26:20.864Z,47.64
2023-05-08T00:28:46.828Z,47.57
2023-05-08T00:31:13.172Z,47.71
2023-05-08T00:33:38.933Z,47.78
2023-05-08T00:36:05.160Z,47.80
2023-05-08T00:38:31.767Z,47.71
2023-05-08T00:40:57.488Z,47.78
2023-05-08T00:43:27.260Z,47.49
2023-05-08T00:45:55.419Z,47.77
2023-05-08T00:48:22.897Z,47.66
2023-05-08T00:50:49.877Z,47.54
2023-05-08T00:53:16.662Z,47.82
2023-05-08T00:55:42.816Z,47.47
2023-05-08T00:58:08.878Z,47.75
2023-05-08T01:00:35.495Z,47.61
2023-05-08T01:03:01.396Z,47.38
2023-05-08T01:05:27.519Z,47.64
2023-05-08T01:07:53.167Z,47.58
2023-05-08T01:10:18.842Z,47.63
2023-05-08T01:13:07.780Z,47.53
2023-05-08T01:15:38.610Z,47.82
2023-05-08T01:18:24.280Z,47.51
2023-05-08T01:21:03.380Z,47.53
2023-05-08T01:23:56.171Z,47.73
2023-05-08T01:26:47.296Z,47.87
2023-05-08T01:29:42.579Z,47.58
2023-05-08T01:32:26.530Z,47.55
2023-05-08T01:35:16.970Z,47.60
2023-05-08T01:37:58.108Z,47.58
2023-05-08T01:41:01.478Z,47.72
2023-05-08T01:44:01.282Z,47.54
2023-05-08T01:46:27.596Z,47.77
2023-05-08T01:49:10.809Z,47.46
2023-05-08T01:51:57.371Z,47.63
2023-05-08T01:54:26.191Z,47.86
2023-05-08T01:56:53.955Z,47.60
2023-05-08T01:59:21.523Z,47.49
2023-05-08T02:01:48.744Z,47.54
2023-05-08T02:04:15.849Z,47.83
2023-05-08T02:06:41.687Z,47.37
2023-05-08T02:09:08.530Z,47.61
2023-05-08T02:11:36.090Z,47.72
2023-05-08T02:14:02.012Z,47.72
2023-05-08T02:16:28.274Z,47.86
2023-05-08T02:18:55.207Z,47.79
2023-05-08T02:21:21.688Z,47.30
2023-05-08T02:23:48.048Z,47.64
2023-05-08T02:26:15.005Z,47.71
2023-05-08T02:28:41.163Z,47.82
2023-05-08T02:31:08.394Z,47.68
2023-05-08T02:33:34.209Z,47.77
2023-05-08T02:36:00.843Z,47.49
2023-05-08T02:38:26.571Z,47.74
2023-05-08T02:40:56.832Z,47.86
2023-05-08T02:43:23.078Z,47.63
2023-05-08T02:45:58.990Z,47.90
2023-05-08T02:48:47.300Z,47.76
2023-05-08T02:51:52.777Z,47.56
2023-05-08T02:54:42.654Z,47.57
2023-05-08T02:57:14.359Z,47.76
2023-05-08T02:59:44.662Z,47.78
2023-05-08T03:02:32.377Z,47.70
2023-05-08T03:05:03.560Z,47.56
2023-05-08T03:07:29.890Z,48.06
2023-05-08T03:09:59.596Z,47.96
2023-05-08T03:12:27.407Z,47.54
2023-05-08T03:15:32.961Z,47.65
2023-05-08T03:18:05.786Z,47.64
2023-05-08T03:20:34.125Z,47.82
2023-05-08T03:23:02.075Z,47.83
2023-05-08T03:25:28.552Z,47.89
2023-05-08T03:27:55.624Z,47.65
2023-05-08T03:30:21.752Z,47.62
2023-05-08T03:32:47.911Z,47.70
2023-05-08T03:35:15.113Z,47.67
2023-05-08T03:37:41.893Z,47.88
2023-05-08T03:40:08.092Z,47.73
2023-05-08T03:42:33.777Z,47.90
2023-05-08T03:45:00.157Z,47.76
2023-05-08T03:47:26.750Z,47.56
2023-05-08T03:49:52.479Z,47.71
2023-05-08T03:52:18.124Z,47.54
2023-05-08T03:54:43.783Z,47.45
2023-05-08T03:57:10.097Z,47.50
2023-05-08T03:59:42.492Z,47.69
2023-05-08T04:02:29.340Z,47.68
2023-05-08T04:05:01.366Z,47.69
2023-05-08T04:07:31.275Z,47.99
2023-05-08T04:10:05.836Z,47.86
2023-05-08T04:12:37.881Z,47.93
2023-05-08T04:15:08.252Z,47.86
2023-05-08T04:17:38.894Z,47.61
2023-05-08T04:20:06.694Z,47.60
2023-05-08T04:22:33.072Z,47.72
2023-05-08T04:25:02.290Z,47.52
2023-05-08T04:27:28.494Z,47.61
2023-05-08T04:29:55.535Z,47.60
2023-05-08T04:32:21.896Z,47.63
2023-05-08T04:34:47.657Z,47.54
2023-05-08T04:37:30.511Z,47.74
2023-05-08T04:39:56.168Z,47.58
2023-05-08T04:42:21.851Z,47.61
2023-05-08T04:44:47.599Z,47.61
2023-05-08T04:47:13.739Z,47.68
2023-05-08T04:49:39.852Z,47.55
2023-05-08T04:52:06.026Z,47.53
2023-05-08T04:54:31.767Z,47.83
2023-05-08T04:56:57.481Z,48.06
2023-05-08T04:59:24.265Z,47.75
2023-05-08T05:01:50.084Z,47.74
2023-05-08T05:04:15.824Z,47.72
2023-05-08T05:06:41.770Z,47.81
2023-05-08T05:09:07.514Z,47.72
2023-05-08T05:11:33.166Z,47.64
2023-05-08T05:13:58.843Z,47.72
2023-05-08T05:16:24.535Z,48.02
2023-05-08T05:18:50.275Z,47.80
2023-05-08T05:21:16.353Z,47.67
2023-05-08T05:23:42.008Z,47.86
2023-05-08T05:26:07.742Z,47.81
2023-05-08T05:28:33.417Z,49.59
2023-05-08T05:30:59.508Z,49.99
2023-05-08T05:33:25.177Z,50.01
2023-05-08T05:35:50.822Z,49.15
2023-05-08T05:38:16.496Z,48.84
2023-05-08T05:40:42.150Z,48.71
2023-05-08T05:43:07.791Z,48.67
2023-05-08T05:45:33.827Z,48.68
2023-05-08T05:47:59.643Z,48.59
2023-05-08T05:50:26.414Z,48.93
2023-05-08T05:52:52.217Z,49.46
2023-05-08T05:55:17.886Z,49.03
2023-05-08T05:57:43.572Z,49.66
2023-05-08T06:00:10.596Z,48.88
2023-05-08T06:02:36.339Z,49.49
2023-05-08T06:05:02.589Z,49.15
2023-05-08T06:07:28.288Z,48.74
2023-05-08T06:09:53.997Z,48.64
2023-05-08T06:12:19.708Z,48.91
2023-05-08T06:14:45.370Z,48.49
2023-05-08T06:17:11.120Z,48.88
2023-05-08T06:19:36.826Z,48.40
2023-05-08T06:22:02.524Z,48.53
2023-05-08T06:24:28.184Z,48.52
2023-05-08T06:26:53.837Z,49.54
2023-05-08T06:29:19.490Z,48.78
2023-05-08T06:31:45.237Z,48.86
2023-05-08T06:34:10.915Z,48.75
2023-05-08T06:36:36.997Z,49.08
2023-05-08T06:39:05.231Z,51.70
2023-05-08T06:41:30.971Z,50.02
2023-05-08T06:43:56.682Z,50.79
2023-05-08T06:46:22.392Z,50.82
2023-05-08T06:48:48.138Z,50.29
2023-05-08T06:51:13.778Z,50.70
2023-05-08T06:53:39.445Z,50.76
2023-05-08T06:56:05.434Z,50.49
2023-05-08T06:58:31.456Z,50.61
2023-05-08T07:01:00.994Z,50.70
2023-05-08T07:03:27.258Z,50.54
2023-05-08T07:05:53.186Z,50.72
2023-05-08T07:08:18.895Z,50.31
2023-05-08T07:10:44.939Z,51.01
2023-05-08T07:13:10.732Z,50.97
2023-05-08T07:15:38.098Z,50.49
2023-05-08T07:18:04.105Z,49.91
2023-05-08T07:20:29.840Z,51.04
2023-05-08T07:22:55.516Z,51.15
2023-05-08T07:25:21.181Z,50.89
2023-05-08T07:27:46.861Z,51.31
2023-05-08T07:30:12.763Z,51.63
2023-05-08T07:32:38.466Z,51.20
2023-05-08T07:35:08.974Z,51.01
2023-05-08T07:37:36.073Z,50.82
2023-05-08T07:40:01.712Z,51.76
2023-05-08T07:42:27.664Z,51.36
2023-05-08T07:44:55.194Z,49.58
2023-05-08T07:47:21.460Z,50.05
2023-05-08T07:49:47.154Z,51.15
2023-05-08T07:52:12.833Z,50.12
2023-05-08T07:54:38.503Z,49.39
2023-05-08T07:57:04.168Z,49.91
2023-05-08T07:59:29.866Z,51.02
2023-05-08T08:01:55.649Z,50.58
2023-05-08T08:04:21.401Z,49.91
2023-05-08T08:06:47.099Z,49.33
2023-05-08T08:09:12.774Z,49.43
2023-05-08T08:11:38.467Z,50.03
2023-05-08T08:14:04.136Z,51.72
2023-05-08T08:16:29.859Z,50.54
2023-05-08T08:18:55.593Z,51.22
2023-05-08T08:21:21.250Z,50.64
2023-05-08T08:23:46.887Z,50.00
2023-05-08T08:26:12.530Z,56.55
2023-05-08T08:28:38.351Z,52.14
2023-05-08T08:31:04.048Z,53.29
2023-05-08T08:33:29.863Z,52.68
2023-05-08T08:35:55.537Z,53.67
2023-05-08T08:38:21.233Z,52.18
2023-05-08T08:40:46.955Z,53.24
2023-05-08T08:43:12.639Z,52.56
2023-05-08T08:45:38.524Z,51.94
2023-05-08T08:48:04.628Z,52.24
2023-05-08T08:50:32.400Z,52.46
2023-05-08T08:53:11.508Z,52.64
2023-05-08T08:55:40.038Z,53.44
2023-05-08T08:58:29.884Z,53.51
2023-05-08T09:00:55.798Z,54.08
2023-05-08T09:03:21.611Z,52.13
2023-05-08T09:05:48.576Z,53.23
2023-05-08T09:08:14.372Z,54.23
2023-05-08T09:10:40.368Z,53.87
2023-05-08T09:13:06.069Z,52.72
2023-05-08T09:15:33.075Z,53.28
2023-05-08T09:18:00.690Z,52.67
2023-05-08T09:20:26.591Z,53.26
2023-05-08T09:22:52.249Z,53.13
2023-05-08T09:25:18.244Z,53.06
2023-05-08T09:27:44.523Z,52.91
2023-05-08T09:30:11.867Z,53.18
2023-05-08T09:32:39.984Z,52.04
2023-05-08T09:35:07.473Z,51.77
2023-05-08T09:37:33.298Z,52.62
2023-05-08T09:40:19.073Z,52.68
2023-05-08T09:42:46.716Z,52.56
2023-05-08T09:45:26.053Z,52.36
2023-05-08T09:47:51.744Z,52.30
2023-05-08T09:50:17.422Z,52.37
2023-05-08T09:52:47.073Z,52.85
2023-05-08T09:55:12.725Z,52.78
2023-05-08T09:57:40.562Z,51.92
2023-05-08T10:00:10.541Z,52.50
2023-05-08T10:02:37.162Z,52.35
2023-05-08T10:05:04.945Z,51.49
2023-05-08T10:07:32.481Z,51.10
2023-05-08T10:09:59.857Z,53.32
2023-05-08T10:12:26.483Z,51.61
2023-05-08T10:14:52.129Z,51.87
2023-05-08T10:17:27.551Z,51.53
2023-05-08T10:19:59.242Z,50.65
2023-05-08T10:22:25.568Z,50.86
2023-05-08T10:24:55.964Z,50.96
2023-05-08T10:27:46.236Z,51.44
2023-05-08T10:30:13.928Z,51.87
2023-05-08T10:32:43.306Z,50.82
2023-05-08T10:35:11.021Z,50.60
2023-05-08T10:37:37.588Z,50.70
2023-05-08T10:40:04.603Z,50.99
2023-05-08T10:42:30.788Z,50.95
2023-05-08T10:44:56.744Z,50.30
2023-05-08T10:47:30.141Z,50.69
2023-05-08T10:50:35.671Z,51.30
2023-05-08T10:53:07.232Z,51.04
2023-05-08T10:55:36.657Z,50.54
2023-05-08T10:58:12.103Z,50.70
2023-05-08T11:03:32.582Z,50.56
2023-05-08T11:05:59.926Z,50.41
2023-05-08T11:08:27.003Z,50.48
2023-05-08T11:11:05.478Z,50.75
2023-05-08T11:13:40.567Z,50.14
2023-05-08T11:16:07.188Z,50.63
2023-05-08T11:21:05.459Z,50.41
2023-05-08T11:23:35.424Z,50.48
2023-05-08T11:26:04.119Z,54.19
2023-05-08T11:28:32.730Z,51.83
2023-05-08T11:31:03.070Z,52.09
2023-05-08T11:33:30.189Z,51.26
2023-05-08T11:35:58.978Z,50.90
2023-05-08T11:38:34.957Z,51.29
2023-05-08T11:41:04.670Z,50.99
2023-05-08T11:43:40.870Z,51.15
2023-05-08T11:46:13.883Z,51.80
2023-05-08T11:48:39.849Z,51.29
2023-05-08T11:51:05.826Z,51.33
2023-05-08T11:53:31.875Z,51.26
2023-05-08T11:55:58.396Z,51.13
2023-05-08T11:58:24.034Z,52.17
2023-05-08T12:00:49.776Z,51.43
2023-05-08T12:03:18.050Z,51.20
2023-05-08T12:05:44.840Z,51.10
2023-05-08T12:08:11.961Z,51.31
2023-05-08T12:10:40.422Z,51.87
2023-05-08T12:13:16.534Z,51.27
2023-05-08T12:15:42.207Z,51.02
2023-05-08T12:18:07.941Z,51.32
2023-05-08T12:20:33.983Z,51.25
2023-05-08T12:23:01.978Z,51.09
2023-05-08T12:25:27.738Z,51.00
2023-05-08T12:27:53.539Z,51.36
2023-05-08T12:30:19.599Z,51.06
2023-05-08T12:32:45.615Z,51.49
2023-05-08T12:35:12.254Z,51.27
2023-05-08T12:37:38.255Z,50.84
2023-05-08T12:40:04.615Z,50.77
2023-05-08T12:42:47.875Z,51.33
2023-05-08T12:45:32.365Z,51.23
2023-05-08T12:48:00.302Z,52.22
2023-05-08T12:50:26.109Z,52.25
2023-05-08T12:52:52.238Z,51.54
2023-05-08T12:55:27.347Z,52.25
2023-05-08T13:00:44.414Z,51.07
2023-05-08T13:03:12.149Z,51.84
2023-05-08T13:05:42.637Z,56.04
2023-05-08T13:08:10.116Z,53.37
2023-05-08T13:10:53.302Z,52.26
2023-05-08T13:13:20.651Z,52.69
2023-05-08T13:15:47.522Z,52.61
2023-05-08T13:18:13.716Z,52.08
2023-05-08T13:20:39.516Z,53.08
2023-05-08T13:23:05.270Z,53.04
2023-05-08T13:25:31.250Z,52.53
2023-05-08T13:27:57.608Z,52.73
2023-05-08T13:30:23.397Z,52.73
2023-05-08T13:32:49.734Z,51.85
2023-05-08T13:35:16.362Z,51.65
2023-05-08T13:37:42.308Z,51.45
2023-05-08T13:40:08.393Z,52.82
2023-05-08T13:42:34.084Z,52.08
2023-05-08T13:44:59.711Z,53.70
2023-05-08T13:47:25.657Z,52.18
2023-05-08T13:49:51.356Z,52.19
2023-05-08T13:52:17.002Z,52.03
2023-05-08T13:54:42.646Z,53.14
2023-05-08T13:57:08.333Z,53.27
2023-05-08T13:59:34.538Z,53.39
2023-05-08T14:02:00.251Z,53.96
2023-05-08T14:04:26.063Z,56.48
2023-05-08T14:06:51.953Z,54.56
2023-05-08T14:09:17.723Z,55.40
2023-05-08T14:11:43.378Z,54.75
2023-05-08T14:14:09.090Z,54.61
2023-05-08T14:16:34.899Z,54.58
2023-05-08T14:19:00.672Z,54.08
2023-05-08T14:21:26.782Z,54.06
2023-05-08T14:23:52.757Z,56.12
2023-05-08T14:26:18.716Z,55.54
2023-05-08T14:28:44.366Z,54.20
2023-05-08T14:31:10.171Z,54.33
2023-05-08T14:33:35.889Z,54.60
2023-05-08T14:36:01.539Z,54.18
2023-05-08T14:38:27.216Z,54.79
2023-05-08T14:40:53.614Z,54.71
2023-05-08T14:43:20.299Z,53.94
2023-05-08T14:45:45.950Z,54.08
2023-05-08T14:48:11.772Z,54.02
2023-05-08T14:50:37.541Z,54.28
2023-05-08T14:53:03.338Z,53.94
2023-05-08T14:55:29.236Z,54.09
2023-05-08T14:57:55.559Z,53.90
2023-05-08T15:00:21.241Z,53.86
2023-05-08T15:02:47.123Z,53.92
2023-05-08T15:07:58.645Z,54.35
2023-05-08T15:10:24.325Z,54.42
2023-05-08T15:12:50.009Z,53.93
2023-05-08T15:15:16.099Z,54.47
2023-05-08T15:17:41.923Z,54.22
2023-05-08T15:20:08.327Z,54.28
2023-05-08T15:22:33.983Z,53.66
2023-05-08T15:25:01.583Z,53.58
2023-05-08T15:27:28.894Z,52.71
2023-05-08T15:29:54.786Z,54.35
2023-05-08T15:32:20.708Z,53.34
2023-05-08T15:34:46.618Z,53.53
2023-05-08T15:37:12.307Z,53.17
2023-05-08T15:39:37.951Z,53.87
2023-05-08T15:42:04.918Z,54.76
2023-05-08T15:44:42.155Z,52.80
2023-05-08T15:47:18.610Z,52.53
2023-05-08T15:49:44.250Z,52.53
2023-05-08T15:52:09.909Z,52.12
2023-05-08T15:54:35.569Z,52.70
2023-05-08T15:57:01.215Z,52.50
2023-05-08T15:59:27.079Z,52.85
2023-05-08T16:01:53.636Z,51.99
2023-05-08T16:04:19.511Z,53.16
2023-05-08T16:06:45.164Z,52.48
2023-05-08T16:09:10.805Z,52.15
2023-05-08T16:11:36.448Z,52.40
2023-05-08T16:14:02.096Z,52.29
2023-05-08T16:16:27.860Z,52.08
2023-05-08T16:18:54.106Z,52.01
2023-05-08T16:21:19.809Z,52.24
2023-05-08T16:23:45.467Z,52.29
2023-05-08T16:26:12.282Z,52.00
2023-05-08T16:28:37.974Z,52.00
2023-05-08T16:31:05.238Z,51.96
2023-05-08T16:33:31.381Z,53.36
2023-05-08T16:35:57.056Z,52.24
2023-05-08T16:38:22.765Z,52.58
2023-05-08T16:40:48.445Z,52.01
2023-05-08T16:43:14.097Z,52.62
2023-05-08T16:45:41.314Z,52.84
2023-05-08T16:48:07.059Z,52.24
2023-05-08T16:50:32.813Z,52.54
2023-05-08T16:52:58.839Z,52.23
2023-05-08T16:55:24.547Z,52.48
2023-05-08T16:57:52.737Z,52.30
2023-05-08T17:00:20.227Z,52.16
2023-05-08T17:02:46.073Z,52.18
2023-05-08T17:05:11.912Z,52.48
2023-05-08T17:07:38.661Z,52.31
2023-05-08T17:10:04.784Z,52.13
2023-05-08T17:12:30.436Z,52.19
2023-05-08T17:14:56.153Z,51.92
2023-05-08T17:17:21.807Z,51.99
2023-05-08T17:19:47.486Z,51.98
2023-05-08T17:22:13.128Z,53.10
2023-05-08T17:24:38.786Z,52.17
2023-05-08T17:27:06.249Z,52.42
2023-05-08T17:29:32.624Z,52.71
2023-05-08T17:31:58.336Z,52.82
2023-05-08T17:34:24.083Z,52.07
2023-05-08T17:36:49.777Z,51.82
2023-05-08T17:39:17.372Z,52.23
2023-05-08T17:41:43.024Z,52.31
2023-05-08T17:44:08.659Z,52.93
2023-05-08T17:46:34.326Z,52.01
2023-05-08T17:48:59.962Z,51.95
2023-05-08T17:51:25.627Z,52.00
2023-05-08T17:53:52.268Z,52.05
2023-05-08T17:56:19.648Z,52.02
2023-05-08T17:58:46.116Z,51.86
2023-05-08T18:01:11.887Z,52.24
2023-05-08T18:03:37.688Z,52.11
2023-05-08T18:06:03.390Z,52.12
2023-05-08T18:08:29.055Z,53.04
2023-05-08T18:10:54.697Z,51.76
2023-05-08T18:13:20.455Z,51.91
2023-05-08T18:15:46.234Z,51.83
2023-05-08T18:18:11.960Z,52.25
2023-05-08T18:20:37.652Z,51.95
2023-05-08T18:23:03.345Z,51.88
2023-05-08T18:25:28.996Z,51.68
2023-05-08T18:27:54.654Z,52.12
2023-05-08T18:30:20.303Z,52.33
2023-05-08T18:32:45.997Z,51.87
2023-05-08T18:35:11.678Z,51.93
2023-05-08T18:37:37.320Z,51.97
2023-05-08T18:40:04.221Z,51.80
2023-05-08T18:42:29.863Z,51.90
2023-05-08T18:44:55.514Z,51.89
2023-05-08T18:47:21.153Z,51.93
2023-05-08T18:49:46.807Z,51.63
2023-05-08T18:52:13.661Z,51.87
2023-05-08T18:54:39.310Z,51.56
2023-05-08T18:57:04.948Z,51.81
2023-05-08T18:59:30.644Z,51.93
2023-05-08T19:01:56.312Z,51.86
2023-05-08T19:04:21.977Z,51.69
2023-05-08T19:06:47.616Z,51.87
2023-05-08T19:09:13.299Z,52.03
2023-05-08T19:11:38.947Z,52.04
2023-05-08T19:14:04.631Z,51.88
2023-05-08T19:16:30.397Z,51.80
2023-05-08T19:18:56.146Z,51.65
2023-05-08T19:21:21.801Z,51.69
2023-05-08T19:23:47.515Z,51.75
2023-05-08T19:26:13.179Z,51.79
2023-05-08T19:28:38.855Z,51.72
2023-05-08T19:31:04.526Z,52.13
2023-05-08T19:33:30.223Z,51.63
2023-05-08T19:35:55.875Z,51.66
2023-05-08T19:38:21.512Z,51.66
2023-05-08T19:40:56.307Z,51.61
2023-05-08T19:43:24.808Z,51.68
2023-05-08T19:45:50.510Z,51.63
2023-05-08T19:48:18.681Z,51.55
2023-05-08T19:50:44.361Z,52.00
2023-05-08T19:53:10.005Z,51.55
2023-05-08T19:55:36.225Z,51.68
2023-05-08T19:58:02.194Z,51.33
2023-05-08T20:00:27.852Z,51.69
2023-05-08T20:02:53.650Z,51.65
2023-05-08T20:05:23.092Z,51.64
2023-05-08T20:07:49.084Z,51.63
2023-05-08T20:10:15.123Z,51.91
2023-05-08T20:12:40.991Z,51.68
2023-05-08T20:15:07.161Z,51.92
2023-05-08T20:17:32.853Z,51.54
2023-05-08T20:19:58.556Z,51.53
2023-05-08T20:22:24.215Z,51.91
2023-05-08T20:24:49.856Z,51.74
2023-05-08T20:27:15.532Z,51.68
2023-05-08T20:29:41.183Z,51.51
2023-05-08T20:32:07.391Z,51.60
2023-05-08T20:34:33.587Z,51.38
2023-05-08T20:37:00.136Z,51.61
2023-05-08T20:39:26.197Z,51.69
2023-05-08T20:41:51.863Z,51.61
2023-05-08T20:44:18.477Z,51.48
2023-05-08T20:46:44.933Z,51.39
2023-05-08T20:49:10.648Z,51.32
2023-05-08T20:51:36.285Z,51.87
2023-05-08T20:54:02.003Z,51.44
2023-05-08T20:56:27.705Z,51.60
2023-05-08T20:58:53.357Z,51.68
2023-05-08T21:01:20.815Z,51.58
2023-05-08T21:03:46.782Z,51.19
2023-05-08T21:06:12.667Z,51.28
2023-05-08T21:08:38.910Z,51.42
2023-05-08T21:11:04.578Z,51.51
2023-05-08T21:13:31.250Z,51.66
2023-05-08T21:15:56.974Z,51.54
2023-05-08T21:18:22.714Z,51.40
2023-05-08T21:20:49.675Z,51.29
2023-05-08T21:23:16.646Z,51.45
2023-05-08T21:25:44.827Z,51.66
2023-05-08T21:28:10.468Z,51.68
2023-05-08T21:30:36.109Z,51.24
2023-05-08T21:33:02.358Z,51.39
2023-05-08T21:35:28.016Z,51.47
2023-05-08T21:37:54.748Z,51.53
2023-05-08T21:40:20.625Z,51.46
2023-05-08T21:42:46.276Z,51.60
2023-05-08T21:45:12.124Z,51.26
2023-05-08T21:47:37.989Z,51.67
2023-05-08T21:50:03.894Z,51.34
2023-05-08T21:52:29.537Z,51.39
2023-05-08T21:54:55.181Z,51.39
2023-05-08T21:57:20.844Z,51.46
2023-05-08T21:59:48.256Z,51.52
2023-05-08T22:02:14.360Z,51.50
2023-05-08T22:04:39.995Z,51.29
2023-05-08T22:07:05.649Z,51.28
2023-05-08T22:09:31.342Z,51.29
2023-05-08T22:11:56.992Z,51.86
2023-05-08T22:14:22.654Z,51.26
2023-05-08T22:16:48.944Z,51.46
2023-05-08T22:19:14.636Z,51.47
2023-05-08T22:21:41.293Z,51.44
2023-05-08T22:24:07.221Z,51.62
2023-05-08T22:26:32.861Z,51.37
2023-05-08T22:28:58.872Z,51.52
2023-05-08T22:31:24.615Z,51.47
2023-05-08T22:33:50.344Z,51.31
2023-05-08T22:36:15.993Z,51.20
2023-05-08T22:38:41.630Z,51.40
2023-05-08T22:41:07.827Z,51.37
2023-05-08T22:43:33.479Z,51.35
2023-05-08T22:45:59.222Z,51.42
2023-05-08T22:48:24.905Z,51.23
2023-05-08T22:50:50.879Z,51.26
2023-05-08T22:53:17.626Z,51.36
2023-05-08T22:55:43.326Z,51.26
2023-05-08T22:58:09.023Z,51.31
2023-05-08T23:00:34.693Z,51.05
2023-05-08T23:03:00.434Z,51.32
2023-05-08T23:05:26.209Z,51.17
2023-05-08T23:07:51.854Z,51.13
2023-05-08T23:10:17.517Z,51.89
2023-05-08T23:12:43.200Z,51.20
2023-05-08T23:15:09.270Z,51.23
2023-05-08T23:17:35.005Z,51.39
2023-05-08T23:20:00.708Z,51.23
2023-05-08T23:22:27.787Z,51.31
2023-05-08T23:24:53.838Z,51.20
2023-05-08T23:27:19.760Z,51.33
2023-05-08T23:29:45.452Z,50.99
2023-05-08T23:32:12.051Z,51.34
2023-05-08T23:34:37.710Z,51.32
2023-05-08T23:37:03.360Z,51.08
2023-05-08T23:39:29.042Z,50.96
2023-05-08T23:41:54.678Z,51.23
2023-05-08T23:44:20.342Z,51.28
2023-05-08T23:46:46.109Z,51.37
2023-05-08T23:49:11.826Z,51.25
2023-05-08T23:51:37.480Z,51.43
2023-05-08T23:54:03.822Z,51.02
2023-05-08T23:56:30.004Z,51.23
2023-05-08T23:58:55.936Z,51.33
